Time;durP1;ratioP1;P1;durP2;ratioP2;P2;SDS_P1;SDS_P2;PMS_P1;PMS_P2;Temp;Humidity;BMP_temperature;BMP_pressure;BME280_temperature;BME280_humidity;BME280_pressure;Samples;Min_cycle;Max_cycle;Signal;HPM_P1;HPM_P2
2021/06/18 00:02:18;;;;;;;0.10;0.10;;;;;;;;;;5074099;28;20060;-84
2021/06/18 00:04:44;;;;;;;0.10;0.10;;;;;;;;;;5074012;28;20037;-85
2021/06/18 00:07:10;;;;;;;0.20;0.20;;;;;;;;;;5075069;28;20040;-85
2021/06/18 00:09:36;;;;;;;0.43;0.20;;;;;;;;;;5057235;28;20401;-84
2021/06/18 00:12:03;;;;;;;0.10;0.10;;;;;;;;;;5073975;28;20482;-85
2021/06/18 00:14:29;;;;;;;0.10;0.10;;;;;;;;;;5073756;28;20040;-85
2021/06/18 00:16:55;;;;;;;0.13;0.13;;;;;;;;;;5073736;28;20040;-85
2021/06/18 00:19:21;;;;;;;0.20;0.20;;;;;;;;;;5057123;28;20560;-85
2021/06/18 00:21:47;;;;;;;0.10;0.10;;;;;;;;;;5057035;28;20123;-85
2021/06/18 00:24:14;;;;;;;0.10;0.10;;;;;;;;;;5074780;28;20485;-85
2021/06/18 00:26:40;;;;;;;0.20;0.20;;;;;;;;;;5073733;28;20043;-85
2021/06/18 00:29:06;;;;;;;0.10;0.10;;;;;;;;;;5073709;28;20064;-85
2021/06/18 00:31:32;;;;;;;0.10;0.10;;;;;;;;;;5073685;28;20083;-85
2021/06/18 00:33:58;;;;;;;0.10;0.10;;;;;;;;;;5072384;28;20033;-85
2021/06/18 00:36:24;;;;;;;0.10;0.10;;;;;;;;;;5071775;28;20041;-85
2021/06/18 00:38:50;;;;;;;0.10;0.10;;;;;;;;;;5073331;28;20072;-84
2021/06/18 00:41:16;;;;;;;0.10;0.10;;;;;;;;;;5055635;28;20063;-85
2021/06/18 00:43:43;;;;;;;0.15;0.15;;;;;;;;;;5072151;28;20090;-84
2021/06/18 00:46:09;;;;;;;0.10;0.10;;;;;;;;;;5072107;28;20437;-84
2021/06/18 00:48:36;;;;;;;0.10;0.10;;;;;;;;;;5072101;28;20067;-85
2021/06/18 00:51:02;;;;;;;0.10;0.10;;;;;;;;;;5073094;28;20040;-85
2021/06/18 00:53:28;;;;;;;0.10;0.10;;;;;;;;;;5073128;28;20118;-85
2021/06/18 00:55:54;;;;;;;0.10;0.10;;;;;;;;;;5073235;28;20474;-85
2021/06/18 00:58:20;;;;;;;0.10;0.10;;;;;;;;;;5071901;28;20098;-85
2021/06/18 01:00:46;;;;;;;0.10;0.10;;;;;;;;;;5071885;28;20051;-86
2021/06/18 01:03:12;;;;;;;0.20;0.20;;;;;;;;;;5071905;28;20040;-85
2021/06/18 01:05:38;;;;;;;0.15;0.15;;;;;;;;;;5055284;28;20551;-85
2021/06/18 01:08:23;;;;;;;0.20;0.20;;;;;;;;;;5071755;28;20378;-85
2021/06/18 01:11:00;;;;;;;0.20;0.20;;;;;;;;;;5072860;28;20037;-85
2021/06/18 01:13:29;;;;;;;0.10;0.10;;;;;;;;;;5071664;28;20033;-85
2021/06/18 01:16:07;;;;;;;0.10;0.10;;;;;;;;;;5072826;28;20094;-85
2021/06/18 01:18:47;;;;;;;0.10;0.10;;;;;;;;;;5071530;28;20139;-85
2021/06/18 01:21:31;;;;;;;0.20;0.20;;;;;;;;;;5071503;28;20041;-85
2021/06/18 01:23:59;;;;;;;0.35;0.35;;;;;;;;;;5071441;28;20040;-85
2021/06/18 01:26:25;;;;;;;1.00;1.00;;;;;;;;;;5071447;28;20122;-85
2021/06/18 01:28:58;;;;;;;0.10;0.10;;;;;;;;;;5071218;28;20072;-84
2021/06/18 01:31:25;;;;;;;0.15;0.15;;;;;;;;;;5059123;28;57778;-85
2021/06/18 01:33:53;;;;;;;0.17;0.13;;;;;;;;;;5070021;28;20037;-85
2021/06/18 01:36:19;;;;;;;0.10;0.10;;;;;;;;;;5055553;28;20048;-84
2021/06/18 01:38:46;;;;;;;0.20;0.20;;;;;;;;;;5055717;28;20040;-84
2021/06/18 01:41:13;;;;;;;0.10;0.10;;;;;;;;;;5055481;28;20131;-84
2021/06/18 01:43:40;;;;;;;0.10;0.10;;;;;;;;;;5072203;28;20039;-84
2021/06/18 01:46:08;;;;;;;0.10;0.10;;;;;;;;;;5072245;28;20093;-84
2021/06/18 01:48:34;;;;;;;0.10;0.10;;;;;;;;;;5071084;28;20143;-84
2021/06/18 01:51:00;;;;;;;0.20;0.20;;;;;;;;;;5055492;28;20314;-84
2021/06/18 01:53:26;;;;;;;0.20;0.20;;;;;;;;;;5071985;28;20091;-85
2021/06/18 01:55:52;;;;;;;0.20;0.20;;;;;;;;;;5072993;28;20037;-85
2021/06/18 01:58:18;;;;;;;0.10;0.10;;;;;;;;;;5055349;28;20043;-85
2021/06/18 02:00:48;;;;;;;0.55;0.55;;;;;;;;;;5071785;28;20115;-85
2021/06/18 02:03:25;;;;;;;0.10;0.10;;;;;;;;;;5071784;28;20106;-85
2021/06/18 02:05:52;;;;;;;0.10;0.10;;;;;;;;;;5054991;28;20044;-85
2021/06/18 02:08:18;;;;;;;0.40;0.40;;;;;;;;;;5071428;28;20064;-85
2021/06/18 02:10:44;;;;;;;0.17;0.17;;;;;;;;;;5071632;28;20067;-86
2021/06/18 02:13:10;;;;;;;0.10;0.10;;;;;;;;;;5072077;28;20089;-90
2021/06/18 02:15:37;;;;;;;0.10;0.10;;;;;;;;;;5055031;28;20397;-86
2021/06/18 02:18:03;;;;;;;0.20;0.20;;;;;;;;;;5054801;28;20037;-85
2021/06/18 02:20:29;;;;;;;0.10;0.10;;;;;;;;;;5071432;28;20063;-85
2021/06/18 02:22:55;;;;;;;0.10;0.10;;;;;;;;;;5072460;28;20089;-85
2021/06/18 02:25:21;;;;;;;0.55;0.20;;;;;;;;;;5054928;28;20553;-85
2021/06/18 02:27:47;;;;;;;0.20;0.20;;;;;;;;;;5071190;28;20045;-85
2021/06/18 02:30:14;;;;;;;0.20;0.20;;;;;;;;;;5071311;28;20509;-85
2021/06/18 02:32:40;;;;;;;0.10;0.10;;;;;;;;;;5038406;28;20045;-86
2021/06/18 02:35:06;;;;;;;0.10;0.10;;;;;;;;;;5054591;28;20379;-85
2021/06/18 02:37:32;;;;;;;0.10;0.10;;;;;;;;;;5070949;28;20120;-85
2021/06/18 02:39:58;;;;;;;0.10;0.10;;;;;;;;;;5071176;28;20036;-85
2021/06/18 02:42:26;;;;;;;0.10;0.10;;;;;;;;;;5072258;28;20040;-85
2021/06/18 02:44:52;;;;;;;0.15;0.13;;;;;;;;;;5070987;28;20032;-85
2021/06/18 02:47:19;;;;;;;0.20;0.20;;;;;;;;;;5070947;28;20045;-86
2021/06/18 02:49:47;;;;;;;0.20;0.20;;;;;;;;;;5072167;28;20432;-85
2021/06/18 02:52:33;;;;;;;0.10;0.10;;;;;;;;;;5071079;28;20040;-86
2021/06/18 02:55:06;;;;;;;0.30;0.20;;;;;;;;;;5071606;28;20048;-85
2021/06/18 02:57:35;;;;;;;0.10;0.10;;;;;;;;;;5054326;28;20098;-85
2021/06/18 03:00:04;;;;;;;0.10;0.10;;;;;;;;;;5071931;28;20050;-85
2021/06/18 03:02:33;;;;;;;0.10;0.10;;;;;;;;;;5070878;28;20404;-85
2021/06/18 03:04:59;;;;;;;0.10;0.10;;;;;;;;;;5054614;28;20039;-85
2021/06/18 03:07:28;;;;;;;0.20;0.20;;;;;;;;;;5070880;28;20037;-86
2021/06/18 03:09:54;;;;;;;0.10;0.10;;;;;;;;;;5071894;28;20041;-86
2021/06/18 03:12:21;;;;;;;0.73;0.73;;;;;;;;;;5054057;28;20072;-87
2021/06/18 03:14:47;;;;;;;0.10;0.10;;;;;;;;;;5054097;28;20052;-85
2021/06/18 03:17:18;;;;;;;0.15;0.15;;;;;;;;;;5070806;28;20094;-86
2021/06/18 03:19:46;;;;;;;0.10;0.10;;;;;;;;;;5071080;28;20041;-85
2021/06/18 03:22:12;;;;;;;0.20;0.20;;;;;;;;;;5072039;28;20043;-86
2021/06/18 03:24:38;;;;;;;0.10;0.10;;;;;;;;;;5070782;28;20130;-86
2021/06/18 03:27:04;;;;;;;0.20;0.20;;;;;;;;;;5070676;28;20039;-85
2021/06/18 03:29:31;;;;;;;0.20;0.20;;;;;;;;;;5070468;28;20421;-85
2021/06/18 03:31:57;;;;;;;0.20;0.20;;;;;;;;;;5053821;28;20060;-86
2021/06/18 03:34:24;;;;;;;0.20;0.20;;;;;;;;;;5070620;28;20094;-85
2021/06/18 03:36:50;;;;;;;0.10;0.10;;;;;;;;;;5070492;28;20470;-86
2021/06/18 03:39:16;;;;;;;0.10;0.10;;;;;;;;;;5070693;28;20044;-86
2021/06/18 03:41:42;;;;;;;0.55;0.55;;;;;;;;;;5053894;28;20111;-86
2021/06/18 03:44:08;;;;;;;0.20;0.20;;;;;;;;;;5070418;28;20046;-86
2021/06/18 03:46:35;;;;;;;1.55;1.05;;;;;;;;;;5053777;28;20370;-86
2021/06/18 03:49:01;;;;;;;0.10;0.10;;;;;;;;;;5070371;28;20094;-86
2021/06/18 03:51:27;;;;;;;0.10;0.10;;;;;;;;;;5070450;28;20037;-85
2021/06/18 03:53:55;;;;;;;0.10;0.10;;;;;;;;;;5070571;28;20072;-86
2021/06/18 03:56:21;;;;;;;0.10;0.10;;;;;;;;;;5070368;28;20446;-85
2021/06/18 03:58:47;;;;;;;0.10;0.10;;;;;;;;;;5070426;28;20036;-85
2021/06/18 04:01:13;;;;;;;0.20;0.20;;;;;;;;;;5070433;28;20037;-85
2021/06/18 04:03:42;;;;;;;0.10;0.10;;;;;;;;;;5070329;28;20089;-86
2021/06/18 04:06:08;;;;;;;0.20;0.20;;;;;;;;;;5070317;28;20062;-85
2021/06/18 04:08:35;;;;;;;0.20;0.20;;;;;;;;;;5070213;28;20040;-86
2021/06/18 04:11:01;;;;;;;0.40;0.40;;;;;;;;;;5071920;28;20497;-86
2021/06/18 04:13:27;;;;;;;0.17;0.17;;;;;;;;;;5073822;28;20112;-85
2021/06/18 04:15:53;;;;;;;0.20;0.20;;;;;;;;;;5073855;28;20393;-85
2021/06/18 04:18:20;;;;;;;0.20;0.20;;;;;;;;;;5075011;28;20087;-85
2021/06/18 04:20:46;;;;;;;0.10;0.10;;;;;;;;;;5073912;28;20040;-85
2021/06/18 04:23:12;;;;;;;0.10;0.10;;;;;;;;;;5073810;28;20041;-86
2021/06/18 04:25:38;;;;;;;0.20;0.20;;;;;;;;;;5056985;28;20474;-86
2021/06/18 04:28:06;;;;;;;0.20;0.20;;;;;;;;;;5074548;28;20090;-86
2021/06/18 04:30:32;;;;;;;0.20;0.20;;;;;;;;;;5057161;28;20063;-86
2021/06/18 04:32:58;;;;;;;0.20;0.20;;;;;;;;;;5073639;28;20047;-85
2021/06/18 04:35:24;;;;;;;0.10;0.10;;;;;;;;;;5073581;28;20131;-85
2021/06/18 04:37:50;;;;;;;0.10;0.10;;;;;;;;;;5073570;28;20406;-86
2021/06/18 04:40:16;;;;;;;0.20;0.20;;;;;;;;;;5074505;28;20037;-85
2021/06/18 04:42:42;;;;;;;0.20;0.20;;;;;;;;;;5073327;28;20078;-85
2021/06/18 04:45:08;;;;;;;0.20;0.20;;;;;;;;;;5073266;28;20085;-85
2021/06/18 04:47:34;;;;;;;0.30;0.30;;;;;;;;;;5056567;28;20043;-85
2021/06/18 04:50:01;;;;;;;0.20;0.20;;;;;;;;;;5073134;28;20405;-86
2021/06/18 04:52:27;;;;;;;0.20;0.20;;;;;;;;;;5073168;28;20094;-85
2021/06/18 04:54:59;;;;;;;0.30;0.20;;;;;;;;;;5056388;28;20041;-85
2021/06/18 04:57:25;;;;;;;0.17;0.17;;;;;;;;;;5073044;28;20127;-85
2021/06/18 04:59:51;;;;;;;0.25;0.25;;;;;;;;;;5056508;28;20489;-85
2021/06/18 05:02:17;;;;;;;0.10;0.10;;;;;;;;;;5073024;28;20043;-86
2021/06/18 05:04:43;;;;;;;0.20;0.20;;;;;;;;;;5056343;28;20036;-85
2021/06/18 05:07:09;;;;;;;0.10;0.10;;;;;;;;;;5072848;28;20037;-85
2021/06/18 05:09:35;;;;;;;0.22;0.22;;;;;;;;;;5072653;28;20120;-85
2021/06/18 05:12:01;;;;;;;0.32;0.32;;;;;;;;;;5072843;28;20032;-85
2021/06/18 05:14:27;;;;;;;0.30;0.30;;;;;;;;;;5073957;28;20040;-85
2021/06/18 05:16:53;;;;;;;1.45;0.25;;;;;;;;;;5074021;28;20397;-85
2021/06/18 05:19:19;;;;;;;0.20;0.20;;;;;;;;;;5072766;28;20072;-85
2021/06/18 05:21:45;;;;;;;1.05;1.05;;;;;;;;;;5071677;28;20117;-85
2021/06/18 05:24:11;;;;;;;0.35;0.35;;;;;;;;;;5072337;28;20040;-85
2021/06/18 05:26:37;;;;;;;0.20;0.20;;;;;;;;;;5055943;28;20094;-85
2021/06/18 05:29:03;;;;;;;0.10;0.10;;;;;;;;;;5072457;28;20045;-85
2021/06/18 05:31:29;;;;;;;0.20;0.20;;;;;;;;;;5072404;28;20572;-85
2021/06/18 05:33:55;;;;;;;0.30;0.30;;;;;;;;;;5055768;28;20045;-85
2021/06/18 05:36:21;;;;;;;0.20;0.20;;;;;;;;;;5072491;28;20115;-85
2021/06/18 05:38:48;;;;;;;0.20;0.20;;;;;;;;;;5072236;28;20070;-85
2021/06/18 05:41:14;;;;;;;0.50;0.50;;;;;;;;;;5055701;28;20477;-85
2021/06/18 05:43:40;;;;;;;2.45;0.60;;;;;;;;;;5073333;28;20041;-86
2021/06/18 05:46:06;;;;;;;0.30;0.30;;;;;;;;;;5072278;28;20166;-86
2021/06/18 05:48:32;;;;;;;0.20;0.20;;;;;;;;;;5071905;28;20041;-85
2021/06/18 05:50:59;;;;;;;0.20;0.20;;;;;;;;;;5072119;28;20044;-85
2021/06/18 05:53:26;;;;;;;0.30;0.30;;;;;;;;;;5072019;28;20196;-85
2021/06/18 05:55:52;;;;;;;0.52;0.52;;;;;;;;;;5054536;28;20525;-86
2021/06/18 05:58:18;;;;;;;0.10;0.10;;;;;;;;;;5055031;28;20044;-86
2021/06/18 06:00:44;;;;;;;0.25;0.25;;;;;;;;;;5072156;28;20108;-85
2021/06/18 06:03:10;;;;;;;0.20;0.20;;;;;;;;;;5072211;28;20036;-85
2021/06/18 06:05:36;;;;;;;0.52;0.30;;;;;;;;;;5054995;28;20032;-86
2021/06/18 06:08:02;;;;;;;0.40;0.40;;;;;;;;;;5070126;28;20036;-85
2021/06/18 06:10:28;;;;;;;0.52;0.30;;;;;;;;;;5071617;28;20111;-86
2021/06/18 06:12:54;;;;;;;0.20;0.20;;;;;;;;;;5072865;28;20037;-85
2021/06/18 06:15:21;;;;;;;0.43;0.30;;;;;;;;;;5071312;28;20406;-85
2021/06/18 06:17:47;;;;;;;1.25;1.15;;;;;;;;;;5071498;28;20035;-86
2021/06/18 06:20:14;;;;;;;0.35;0.30;;;;;;;;;;5072584;28;20044;-86
2021/06/18 06:22:40;;;;;;;0.20;0.20;;;;;;;;;;5054682;28;20050;-86
2021/06/18 06:25:06;;;;;;;0.10;0.10;;;;;;;;;;5071454;28;20033;-87
2021/06/18 06:27:32;;;;;;;0.10;0.10;;;;;;;;;;5071336;28;20115;-87
2021/06/18 06:29:58;;;;;;;0.75;0.75;;;;;;;;;;5072232;28;20512;-90
2021/06/18 06:32:24;;;;;;;0.68;0.68;;;;;;;;;;5071528;28;20475;-86
2021/06/18 06:34:50;;;;;;;0.30;0.22;;;;;;;;;;5054109;28;20119;-86
2021/06/18 06:37:16;;;;;;;0.10;0.10;;;;;;;;;;5071117;28;20033;-86
2021/06/18 06:39:42;;;;;;;0.10;0.10;;;;;;;;;;5054535;28;20093;-86
2021/06/18 06:42:08;;;;;;;0.17;0.17;;;;;;;;;;5054484;28;20460;-87
2021/06/18 06:44:34;;;;;;;0.20;0.20;;;;;;;;;;5054558;28;20067;-87
2021/06/18 06:47:00;;;;;;;0.10;0.10;;;;;;;;;;5071116;28;20041;-87
2021/06/18 06:49:26;;;;;;;0.20;0.20;;;;;;;;;;5071060;28;20040;-87
2021/06/18 06:51:54;;;;;;;0.10;0.10;;;;;;;;;;5054575;28;20056;-87
2021/06/18 06:54:20;;;;;;;0.10;0.10;;;;;;;;;;5054404;28;20399;-86
2021/06/18 06:56:46;;;;;;;0.10;0.10;;;;;;;;;;5072096;28;20056;-86
2021/06/18 06:59:12;;;;;;;0.55;0.55;;;;;;;;;;5070891;28;20094;-86
2021/06/18 07:01:38;;;;;;;0.10;0.10;;;;;;;;;;5054074;28;20082;-86
2021/06/18 07:04:04;;;;;;;0.20;0.20;;;;;;;;;;5070680;28;20482;-86
2021/06/18 07:06:33;;;;;;;0.10;0.10;;;;;;;;;;5070857;28;20043;-86
2021/06/18 07:09:00;;;;;;;0.10;0.10;;;;;;;;;;5071707;28;20115;-87
2021/06/18 07:11:26;;;;;;;0.10;0.10;;;;;;;;;;5070810;28;20036;-86
2021/06/18 07:13:52;;;;;;;0.20;0.20;;;;;;;;;;5071781;28;20110;-86
2021/06/18 07:16:18;;;;;;;0.10;0.10;;;;;;;;;;5070613;28;20467;-87
2021/06/18 07:18:44;;;;;;;0.20;0.20;;;;;;;;;;5053983;28;20044;-87
2021/06/18 07:21:10;;;;;;;0.15;0.15;;;;;;;;;;5070878;28;20075;-87
2021/06/18 07:23:36;;;;;;;0.20;0.20;;;;;;;;;;5054124;28;20048;-89
2021/06/18 07:26:02;;;;;;;0.20;0.20;;;;;;;;;;5070721;28;20043;-90
2021/06/18 07:28:28;;;;;;;0.20;0.20;;;;;;;;;;5053994;28;20044;-88
2021/06/18 07:30:54;;;;;;;0.30;0.30;;;;;;;;;;5070394;28;20191;-88
2021/06/18 07:33:20;;;;;;;0.20;0.20;;;;;;;;;;5070549;28;20401;-88
2021/06/18 07:35:46;;;;;;;0.10;0.10;;;;;;;;;;5070587;28;20115;-87
2021/06/18 07:38:12;;;;;;;0.43;0.43;;;;;;;;;;5070469;28;20064;-87
2021/06/18 07:40:38;;;;;;;0.10;0.10;;;;;;;;;;5053879;28;20118;-88
2021/06/18 07:43:04;;;;;;;0.20;0.20;;;;;;;;;;5054027;28;20033;-89
2021/06/18 07:45:30;;;;;;;0.43;0.43;;;;;;;;;;5071665;28;20123;-88
2021/06/18 07:47:56;;;;;;;0.20;0.20;;;;;;;;;;5074222;28;20535;-88
2021/06/18 07:50:23;;;;;;;0.20;0.20;;;;;;;;;;5074296;28;20043;-89
2021/06/18 07:52:50;;;;;;;0.10;0.10;;;;;;;;;;5074327;28;20041;-88
2021/06/18 07:55:18;;;;;;;0.20;0.20;;;;;;;;;;5074250;28;20086;-87
2021/06/18 07:57:44;;;;;;;0.20;0.20;;;;;;;;;;5075301;28;20067;-87
2021/06/18 08:00:11;;;;;;;0.20;0.20;;;;;;;;;;5074102;28;20040;-89
2021/06/18 08:02:37;;;;;;;0.20;0.20;;;;;;;;;;5075234;28;20048;-88
2021/06/18 08:05:03;;;;;;;0.20;0.20;;;;;;;;;;5074285;28;20081;-93
2021/06/18 08:07:29;;;;;;;0.20;0.20;;;;;;;;;;5041212;28;20123;-87
2021/06/18 08:09:55;;;;;;;0.20;0.20;;;;;;;;;;5073885;28;20124;-87
2021/06/18 08:12:21;;;;;;;0.20;0.20;;;;;;;;;;5073938;28;20043;-87
2021/06/18 08:14:48;;;;;;;0.13;0.13;;;;;;;;;;5074971;28;20028;-87
2021/06/18 08:17:14;;;;;;;0.25;0.22;;;;;;;;;;5057196;28;20051;-87
2021/06/18 08:19:40;;;;;;;0.30;0.30;;;;;;;;;;5057265;28;20048;-87
2021/06/18 08:22:06;;;;;;;0.20;0.20;;;;;;;;;;5073725;28;20036;-86
2021/06/18 08:24:33;;;;;;;0.20;0.20;;;;;;;;;;5073927;28;20044;-88
2021/06/18 08:26:59;;;;;;;0.30;0.30;;;;;;;;;;5056990;28;20040;-87
2021/06/18 08:29:25;;;;;;;0.10;0.10;;;;;;;;;;5073472;28;20048;-87
2021/06/18 08:31:51;;;;;;;0.10;0.10;;;;;;;;;;5056815;28;20060;-87
2021/06/18 08:34:17;;;;;;;0.20;0.20;;;;;;;;;;5056978;28;20511;-87
2021/06/18 08:36:43;;;;;;;0.20;0.20;;;;;;;;;;5073566;28;20037;-87
2021/06/18 08:39:09;;;;;;;0.20;0.20;;;;;;;;;;5057175;28;20040;-86
2021/06/18 08:41:35;;;;;;;0.20;0.20;;;;;;;;;;5074700;28;20481;-85
2021/06/18 08:44:01;;;;;;;0.20;0.20;;;;;;;;;;5073419;28;20036;-85
2021/06/18 08:46:27;;;;;;;0.20;0.20;;;;;;;;;;5068828;28;20374;-84
2021/06/18 08:48:53;;;;;;;0.15;0.15;;;;;;;;;;5073141;28;20070;-85
2021/06/18 08:51:20;;;;;;;0.20;0.20;;;;;;;;;;5072998;28;20036;-88
2021/06/18 08:53:47;;;;;;;0.20;0.20;;;;;;;;;;5073262;28;20445;-85
2021/06/18 08:56:13;;;;;;;0.28;0.28;;;;;;;;;;5056477;28;20052;-89
2021/06/18 08:58:39;;;;;;;0.20;0.20;;;;;;;;;;5073017;28;20049;-86
2021/06/18 09:01:05;;;;;;;0.20;0.20;;;;;;;;;;5056576;28;20118;-85
2021/06/18 09:03:32;;;;;;;0.20;0.20;;;;;;;;;;5074370;28;20111;-85
2021/06/18 09:05:59;;;;;;;0.30;0.30;;;;;;;;;;5073010;28;20033;-85
2021/06/18 09:08:25;;;;;;;0.20;0.20;;;;;;;;;;5072817;28;20115;-86
2021/06/18 09:10:52;;;;;;;0.20;0.20;;;;;;;;;;5074099;28;20079;-85
2021/06/18 09:13:22;;;;;;;0.20;0.20;;;;;;;;;;5073849;28;20103;-86
2021/06/18 09:15:51;;;;;;;0.30;0.30;;;;;;;;;;5073934;28;20063;-85
2021/06/18 09:18:34;;;;;;;0.20;0.20;;;;;;;;;;5072608;28;20033;-87
2021/06/18 09:21:03;;;;;;;0.20;0.20;;;;;;;;;;5073202;28;20064;-86
2021/06/18 09:23:30;;;;;;;0.20;0.20;;;;;;;;;;5072079;28;20040;-85
2021/06/18 09:26:14;;;;;;;0.10;0.10;;;;;;;;;;5073441;28;20116;-85
2021/06/18 09:28:55;;;;;;;0.30;0.30;;;;;;;;;;5072436;28;20393;-85
2021/06/18 09:31:28;;;;;;;0.30;0.30;;;;;;;;;;5072458;28;20041;-85
2021/06/18 09:33:55;;;;;;;0.20;0.20;;;;;;;;;;5071692;28;20052;-85
2021/06/18 09:36:21;;;;;;;0.20;0.20;;;;;;;;;;5073376;28;20517;-86
2021/06/18 09:38:48;;;;;;;0.40;0.40;;;;;;;;;;5072276;28;20076;-85
2021/06/18 09:41:34;;;;;;;0.20;0.20;;;;;;;;;;5071133;28;20037;-85
2021/06/18 09:44:00;;;;;;;0.20;0.20;;;;;;;;;;5073345;28;20040;-85
2021/06/18 09:46:39;;;;;;;3.83;0.40;;;;;;;;;;5071983;28;20036;-85
2021/06/18 09:49:05;;;;;;;0.20;0.20;;;;;;;;;;5072188;28;20052;-85
2021/06/18 09:51:31;;;;;;;0.20;0.20;;;;;;;;;;5072034;28;20104;-85
2021/06/18 09:54:05;;;;;;;0.20;0.20;;;;;;;;;;5071924;28;20089;-85
2021/06/18 09:56:31;;;;;;;0.20;0.20;;;;;;;;;;5071887;28;20040;-85
2021/06/18 09:58:57;;;;;;;0.32;0.32;;;;;;;;;;5055240;28;20540;-85
2021/06/18 10:01:32;;;;;;;0.10;0.10;;;;;;;;;;5071756;28;20074;-85
2021/06/18 10:03:59;;;;;;;0.28;0.28;;;;;;;;;;5071790;28;20037;-84
2021/06/18 10:06:25;;;;;;;0.20;0.20;;;;;;;;;;5071727;28;20033;-85
2021/06/18 10:08:51;;;;;;;0.20;0.20;;;;;;;;;;5054342;28;20075;-85
2021/06/18 10:11:17;;;;;;;0.20;0.20;;;;;;;;;;5071588;28;20040;-85
2021/06/18 10:13:43;;;;;;;0.20;0.20;;;;;;;;;;5072628;28;20036;-85
2021/06/18 10:16:09;;;;;;;0.10;0.10;;;;;;;;;;5071472;28;20371;-84
2021/06/18 10:18:35;;;;;;;0.20;0.20;;;;;;;;;;5072687;28;20044;-85
2021/06/18 10:21:04;;;;;;;0.10;0.10;;;;;;;;;;5054860;28;20048;-85
2021/06/18 10:23:30;;;;;;;0.30;0.30;;;;;;;;;;5072524;28;20040;-85
2021/06/18 10:25:58;;;;;;;0.30;0.30;;;;;;;;;;5071399;28;20066;-85
2021/06/18 10:28:28;;;;;;;0.20;0.20;;;;;;;;;;5054564;28;20040;-85
2021/06/18 10:30:58;;;;;;;0.40;0.20;;;;;;;;;;5071156;28;20410;-85
2021/06/18 10:33:27;;;;;;;0.20;0.20;;;;;;;;;;5071259;28;20043;-85
2021/06/18 10:35:59;;;;;;;0.20;0.20;;;;;;;;;;5072340;28;20438;-84
2021/06/18 10:38:26;;;;;;;0.10;0.10;;;;;;;;;;5055363;28;20036;-85
2021/06/18 10:40:52;;;;;;;0.50;0.50;;;;;;;;;;5072211;28;20041;-85
2021/06/18 10:43:19;;;;;;;0.35;0.35;;;;;;;;;;5054509;28;20033;-86
2021/06/18 10:46:01;;;;;;;0.17;0.17;;;;;;;;;;5071136;28;20041;-85
2021/06/18 10:48:55;;;;;;;0.20;0.20;;;;;;;;;;5072085;28;20128;-85
2021/06/18 10:51:30;;;;;;;0.20;0.20;;;;;;;;;;5072129;28;20135;-87
2021/06/18 10:53:59;;;;;;;0.10;0.10;;;;;;;;;;5072152;28;20040;-86
2021/06/18 10:56:44;;;;;;;0.17;0.17;;;;;;;;;;5070890;28;20040;-86
2021/06/18 10:59:17;;;;;;;0.10;0.10;;;;;;;;;;5072049;28;20044;-85
2021/06/18 11:01:43;;;;;;;0.22;0.20;;;;;;;;;;5054527;28;20041;-85
2021/06/18 11:04:10;;;;;;;0.20;0.20;;;;;;;;;;5070956;28;20540;-85
2021/06/18 11:06:46;;;;;;;0.10;0.10;;;;;;;;;;5070912;28;20083;-85
2021/06/18 11:09:12;;;;;;;0.20;0.20;;;;;;;;;;5072053;28;20032;-86
2021/06/18 11:11:39;;;;;;;0.10;0.10;;;;;;;;;;5054313;28;20039;-85
2021/06/18 11:14:05;;;;;;;0.20;0.20;;;;;;;;;;5070791;28;20039;-85
2021/06/18 11:16:35;;;;;;;0.20;0.20;;;;;;;;;;5070701;28;20033;-86
2021/06/18 11:19:19;;;;;;;0.20;0.20;;;;;;;;;;5070973;28;20048;-85
2021/06/18 11:21:45;;;;;;;0.10;0.10;;;;;;;;;;5076166;28;20045;-85
2021/06/18 11:24:11;;;;;;;0.20;0.20;;;;;;;;;;5076096;28;20482;-84
2021/06/18 11:27:16;;;;;;;0.10;0.10;;;;;;;;;;5075245;28;20087;-84
2021/06/18 11:29:42;;;;;;;0.20;0.20;;;;;;;;;;5076696;28;20082;-85
2021/06/18 11:32:25;;;;;;;0.10;0.10;;;;;;;;;;5075133;28;20037;-85
2021/06/18 11:34:51;;;;;;;0.38;0.38;;;;;;;;;;5074749;28;20072;-84
2021/06/18 11:37:31;;;;;;;0.13;0.13;;;;;;;;;;5075695;28;20118;-84
2021/06/18 11:40:05;;;;;;;0.20;0.20;;;;;;;;;;5074698;28;20032;-87
2021/06/18 11:42:37;;;;;;;0.20;0.20;;;;;;;;;;5069870;28;20171;-86
2021/06/18 11:45:03;;;;;;;0.20;0.20;;;;;;;;;;5074000;28;20032;-85
2021/06/18 11:47:36;;;;;;;0.22;0.20;;;;;;;;;;5074023;28;20099;-85
2021/06/18 11:50:02;;;;;;;0.20;0.20;;;;;;;;;;5074310;28;20094;-85
2021/06/18 11:52:31;;;;;;;0.32;0.32;;;;;;;;;;5057852;28;20033;-85
2021/06/18 11:55:00;;;;;;;0.20;0.20;;;;;;;;;;5074234;28;20115;-85
2021/06/18 11:57:26;;;;;;;0.20;0.20;;;;;;;;;;5075420;28;20106;-85
2021/06/18 11:59:57;;;;;;;0.10;0.10;;;;;;;;;;5073454;28;20149;-85
2021/06/18 12:02:24;;;;;;;0.40;0.40;;;;;;;;;;5074895;28;20048;-85
2021/06/18 12:05:03;;;;;;;0.40;0.40;;;;;;;;;;5074074;28;20038;-85
2021/06/18 12:07:33;;;;;;;0.20;0.20;;;;;;;;;;5074007;28;20074;-85
2021/06/18 12:09:59;;;;;;;0.35;0.35;;;;;;;;;;5075067;28;20482;-85
2021/06/18 12:12:25;;;;;;;0.20;0.20;;;;;;;;;;5057318;28;20040;-85
2021/06/18 12:14:58;;;;;;;0.20;0.20;;;;;;;;;;5057329;28;20543;-85
2021/06/18 12:17:25;;;;;;;0.40;0.40;;;;;;;;;;5073872;28;20032;-85
2021/06/18 12:19:52;;;;;;;0.22;0.22;;;;;;;;;;5074940;28;20378;-86
2021/06/18 12:22:20;;;;;;;0.15;0.15;;;;;;;;;;5073140;28;20040;-86
2021/06/18 12:24:55;;;;;;;0.20;0.20;;;;;;;;;;5073198;28;20044;-85
2021/06/18 12:27:22;;;;;;;0.10;0.10;;;;;;;;;;5074521;28;20109;-86
2021/06/18 12:29:52;;;;;;;0.20;0.20;;;;;;;;;;5073331;28;20573;-85
2021/06/18 12:32:19;;;;;;;0.30;0.30;;;;;;;;;;5073050;28;20041;-85
2021/06/18 12:34:45;;;;;;;0.20;0.20;;;;;;;;;;5056840;28;20485;-84
2021/06/18 12:37:11;;;;;;;0.20;0.20;;;;;;;;;;5074736;28;20035;-85
2021/06/18 12:39:50;;;;;;;0.20;0.20;;;;;;;;;;5073351;28;20043;-85
2021/06/18 12:42:20;;;;;;;0.20;0.20;;;;;;;;;;5074986;28;20102;-85
2021/06/18 12:44:46;;;;;;;0.20;0.20;;;;;;;;;;5056766;28;20115;-86
2021/06/18 12:47:12;;;;;;;0.20;0.20;;;;;;;;;;5074662;28;20131;-85
2021/06/18 12:49:38;;;;;;;0.20;0.20;;;;;;;;;;5056622;28;20040;-85
2021/06/18 12:52:11;;;;;;;0.10;0.10;;;;;;;;;;5074311;28;20043;-84
2021/06/18 12:54:37;;;;;;;0.13;0.13;;;;;;;;;;5074340;28;20029;-85
2021/06/18 12:57:03;;;;;;;0.20;0.20;;;;;;;;;;5073114;28;20036;-85
2021/06/18 12:59:37;;;;;;;0.32;0.32;;;;;;;;;;5056604;28;20106;-84
2021/06/18 13:02:03;;;;;;;0.20;0.20;;;;;;;;;;5074247;28;20085;-85
2021/06/18 13:04:32;;;;;;;0.20;0.20;;;;;;;;;;5072680;28;20128;-84
2021/06/18 13:06:58;;;;;;;0.10;0.10;;;;;;;;;;5072869;28;20051;-85
2021/06/18 13:09:36;;;;;;;0.20;0.20;;;;;;;;;;5072828;28;20052;-85
2021/06/18 13:12:03;;;;;;;0.20;0.20;;;;;;;;;;5072849;28;20032;-85
2021/06/18 13:14:29;;;;;;;0.20;0.20;;;;;;;;;;5072811;28;20243;-84
2021/06/18 13:16:59;;;;;;;0.20;0.20;;;;;;;;;;5072613;28;20036;-84
2021/06/18 13:19:57;;;;;;;0.20;0.20;;;;;;;;;;5073806;28;20040;-86
2021/06/18 13:22:35;;;;;;;0.20;0.20;;;;;;;;;;5059277;28;20091;-84
2021/06/18 13:25:05;;;;;;;0.30;0.30;;;;;;;;;;5036279;28;20048;-85
2021/06/18 13:27:31;;;;;;;0.20;0.20;;;;;;;;;;5052333;28;20111;-85
2021/06/18 13:30:08;;;;;;;0.20;0.20;;;;;;;;;;5035877;28;20450;-85
2021/06/18 13:32:40;;;;;;;0.20;0.20;;;;;;;;;;5052354;28;20472;-84
2021/06/18 13:35:07;;;;;;;0.20;0.20;;;;;;;;;;5052405;28;20115;-85
2021/06/18 13:37:33;;;;;;;0.30;0.30;;;;;;;;;;5053440;28;20094;-85
2021/06/18 13:40:21;;;;;;;0.30;0.30;;;;;;;;;;5070035;28;20375;-85
2021/06/18 13:42:48;;;;;;;0.20;0.20;;;;;;;;;;5071052;28;20086;-86
2021/06/18 13:45:15;;;;;;;0.15;0.15;;;;;;;;;;5055420;28;20469;-86
2021/06/18 13:47:41;;;;;;;0.20;0.20;;;;;;;;;;5055352;28;20047;-85
2021/06/18 13:50:07;;;;;;;0.10;0.10;;;;;;;;;;5055316;28;20090;-85
2021/06/18 13:52:34;;;;;;;0.22;0.22;;;;;;;;;;5071696;28;20130;-86
2021/06/18 13:55:00;;;;;;;0.20;0.20;;;;;;;;;;5055317;28;20052;-85
2021/06/18 13:57:26;;;;;;;0.55;0.55;;;;;;;;;;5072927;28;20119;-85
2021/06/18 13:59:53;;;;;;;0.20;0.20;;;;;;;;;;5071797;28;20045;-86
2021/06/18 14:02:19;;;;;;;0.20;0.20;;;;;;;;;;5073164;28;20041;-85
2021/06/18 14:04:46;;;;;;;0.30;0.30;;;;;;;;;;5071847;28;20478;-85
2021/06/18 14:07:12;;;;;;;0.20;0.20;;;;;;;;;;5071570;28;20036;-85
2021/06/18 14:09:39;;;;;;;0.20;0.20;;;;;;;;;;5054871;28;20045;-85
2021/06/18 14:12:06;;;;;;;0.20;0.20;;;;;;;;;;5071630;28;20032;-84
2021/06/18 14:14:39;;;;;;;0.20;0.20;;;;;;;;;;5069921;28;20113;-85
2021/06/18 14:17:05;;;;;;;0.20;0.20;;;;;;;;;;5071511;28;20060;-86
2021/06/18 14:19:31;;;;;;;0.28;0.28;;;;;;;;;;5071335;28;20051;-85
2021/06/18 14:21:57;;;;;;;0.22;0.22;;;;;;;;;;5070936;28;20385;-85
2021/06/18 14:24:23;;;;;;;0.20;0.20;;;;;;;;;;5071013;28;20047;-85
2021/06/18 14:26:49;;;;;;;0.20;0.20;;;;;;;;;;5072535;28;20036;-86
2021/06/18 14:29:15;;;;;;;0.20;0.20;;;;;;;;;;5072369;28;20123;-85
2021/06/18 14:31:41;;;;;;;0.20;0.20;;;;;;;;;;5072208;28;20087;-85
2021/06/18 14:34:07;;;;;;;0.30;0.30;;;;;;;;;;5072072;28;20033;-86
2021/06/18 14:36:33;;;;;;;0.20;0.20;;;;;;;;;;5071042;28;20045;-86
2021/06/18 14:38:59;;;;;;;0.57;0.57;;;;;;;;;;5071106;28;20402;-85
2021/06/18 14:41:25;;;;;;;0.20;0.20;;;;;;;;;;5072249;28;20119;-84
2021/06/18 14:43:51;;;;;;;0.20;0.20;;;;;;;;;;5072296;28;20128;-85
2021/06/18 14:46:17;;;;;;;0.20;0.20;;;;;;;;;;5071150;28;20044;-84
2021/06/18 14:48:44;;;;;;;0.20;0.20;;;;;;;;;;5054198;28;20044;-85